createdAt,value
2018-12-25T00:00:28.346Z,-0.78
2018-12-25T00:02:57.422Z,-0.88
2018-12-25T00:05:26.549Z,-0.88
2018-12-25T00:07:55.642Z,-0.91
2018-12-25T00:10:24.754Z,-0.96
2018-12-25T00:12:53.838Z,-0.98
2018-12-25T00:15:23.275Z,-0.96
2018-12-25T00:17:52.377Z,-1.11
2018-12-25T00:20:21.509Z,-1.21
2018-12-25T00:22:50.592Z,-1.29
2018-12-25T00:25:19.700Z,-1.38
2018-12-25T00:27:48.812Z,-1.35
2018-12-25T00:30:17.929Z,-1.30
2018-12-25T00:32:47.016Z,-1.30
2018-12-25T00:35:16.115Z,-1.32
2018-12-25T00:37:45.211Z,-1.34
2018-12-25T00:40:14.308Z,-1.27
2018-12-25T00:42:43.393Z,-1.19
2018-12-25T00:45:12.501Z,-1.14
2018-12-25T00:47:41.590Z,-1.07
2018-12-25T00:50:10.701Z,-1.04
2018-12-25T00:52:39.785Z,-0.99
2018-12-25T00:55:08.897Z,-0.98
2018-12-25T00:57:37.972Z,-0.99
2018-12-25T01:00:07.142Z,-1.01
2018-12-25T01:02:36.240Z,-1.04
2018-12-25T01:05:05.491Z,-1.11
2018-12-25T01:07:34.601Z,-1.08
2018-12-25T01:10:03.781Z,-1.08
2018-12-25T01:12:32.898Z,-1.08
2018-12-25T01:15:01.977Z,-1.08
2018-12-25T01:17:31.096Z,-1.11
2018-12-25T01:20:00.274Z,-1.09
2018-12-25T01:22:29.360Z,-1.16
2018-12-25T01:24:58.446Z,-1.21
2018-12-25T01:27:27.585Z,-1.24
2018-12-25T01:29:56.677Z,-1.22
2018-12-25T01:32:25.791Z,-1.35
2018-12-25T01:34:54.875Z,-1.41
2018-12-25T01:37:23.977Z,-1.57
2018-12-25T01:39:53.063Z,-1.57
2018-12-25T01:42:22.163Z,-1.63
2018-12-25T01:44:51.244Z,-1.55
2018-12-25T01:47:20.356Z,-1.57
2018-12-25T01:49:49.446Z,-1.57
2018-12-25T01:52:18.569Z,-1.51
2018-12-25T01:54:47.651Z,-1.51
2018-12-25T01:57:16.755Z,-1.49
2018-12-25T01:59:45.834Z,-1.51
2018-12-25T02:02:14.947Z,-1.50
2018-12-25T02:04:44.040Z,-1.54
2018-12-25T02:07:13.147Z,-1.47
2018-12-25T02:09:42.233Z,-1.51
2018-12-25T02:12:11.342Z,-1.43
2018-12-25T02:14:40.668Z,-1.52
2018-12-25T02:17:09.755Z,-1.42
2018-12-25T02:19:40.287Z,-1.39
2018-12-25T02:22:09.628Z,-1.35
2018-12-25T02:24:38.736Z,-1.34
2018-12-25T02:27:07.842Z,-1.27
2018-12-25T02:29:36.950Z,-1.31
2018-12-25T02:32:06.041Z,-1.31
2018-12-25T02:34:35.146Z,-1.25
2018-12-25T02:37:04.227Z,-1.28
2018-12-25T02:39:33.336Z,-1.24
2018-12-25T02:42:02.422Z,-1.18
2018-12-25T02:44:31.527Z,-1.17
2018-12-25T02:47:00.599Z,-1.15
2018-12-25T02:49:29.716Z,-0.99
2018-12-25T02:51:58.808Z,-0.99
2018-12-25T02:54:27.907Z,-1.01
2018-12-25T02:56:56.992Z,-0.87
2018-12-25T02:59:26.091Z,-0.90
2018-12-25T03:01:55.175Z,-0.92
2018-12-25T03:04:24.287Z,-0.85
2018-12-25T03:06:53.367Z,-0.64
2018-12-25T03:09:22.776Z,-0.70
2018-12-25T03:11:51.851Z,-0.74
2018-12-25T03:14:20.965Z,-0.69
2018-12-25T03:16:50.035Z,-0.77
2018-12-25T03:19:19.137Z,-0.72
2018-12-25T03:21:48.217Z,-0.63
2018-12-25T03:24:17.321Z,-0.65
2018-12-25T03:26:46.403Z,-0.64
2018-12-25T03:29:15.536Z,-0.72
2018-12-25T03:31:44.624Z,-0.65
2018-12-25T03:34:13.712Z,-0.66
2018-12-25T03:36:42.813Z,-0.57
2018-12-25T03:39:11.905Z,-0.65
2018-12-25T03:41:40.995Z,-0.66
2018-12-25T03:44:10.076Z,-0.57
2018-12-25T03:46:39.172Z,-0.57
2018-12-25T03:49:08.254Z,-0.45
2018-12-25T03:51:37.950Z,-0.53
2018-12-25T03:54:07.026Z,-0.52
2018-12-25T03:56:36.129Z,-0.56
2018-12-25T03:59:05.316Z,-0.53
2018-12-25T04:01:34.410Z,-0.56
2018-12-25T04:04:03.498Z,-0.54
2018-12-25T04:06:32.609Z,-0.51
2018-12-25T04:09:01.708Z,-0.51
2018-12-25T04:11:30.797Z,-0.47
2018-12-25T04:13:59.898Z,-0.51
2018-12-25T04:16:29.008Z,-0.53
2018-12-25T04:18:58.092Z,-0.49
2018-12-25T04:21:27.196Z,-0.47
2018-12-25T04:23:56.272Z,-0.50
2018-12-25T04:26:25.383Z,-0.37
2018-12-25T04:28:54.478Z,-0.41
2018-12-25T04:31:23.591Z,-0.42
2018-12-25T04:33:52.687Z,-0.46
2018-12-25T04:36:21.790Z,-0.46
2018-12-25T04:38:50.871Z,-0.47
2018-12-25T04:41:19.978Z,-0.46
2018-12-25T04:43:49.056Z,-0.46
2018-12-25T04:46:18.172Z,-0.48
2018-12-25T04:48:47.263Z,-0.44
2018-12-25T04:51:16.347Z,-0.55
2018-12-25T04:53:45.458Z,-0.47
2018-12-25T04:56:14.579Z,-0.49
2018-12-25T04:58:43.673Z,-0.37
2018-12-25T05:01:12.767Z,-0.31
2018-12-25T05:03:41.855Z,-0.37
2018-12-25T05:06:10.940Z,-0.38
2018-12-25T05:08:40.032Z,-0.33
2018-12-25T05:11:09.121Z,-0.29
2018-12-25T05:13:38.218Z,-0.27
2018-12-25T05:16:07.323Z,-0.26
2018-12-25T05:18:36.420Z,-0.31
2018-12-25T05:21:05.506Z,-0.27
2018-12-25T05:23:34.612Z,-0.28
2018-12-25T05:26:03.684Z,-0.21
2018-12-25T05:28:32.806Z,-0.26
2018-12-25T05:31:01.880Z,-0.30
2018-12-25T05:33:30.987Z,-0.30
2018-12-25T05:36:00.068Z,-0.32
2018-12-25T05:38:29.170Z,-0.30
2018-12-25T05:40:58.243Z,-0.29
2018-12-25T05:43:27.340Z,-0.29
2018-12-25T05:45:56.417Z,-0.31
2018-12-25T05:48:25.506Z,-0.33
2018-12-25T05:50:54.578Z,-0.33
2018-12-25T05:53:23.677Z,-0.22
2018-12-25T05:55:52.759Z,-0.35
2018-12-25T05:58:21.854Z,-0.27
2018-12-25T06:00:50.942Z,-0.31
2018-12-25T06:03:20.039Z,-0.33
2018-12-25T06:05:49.120Z,-0.33
2018-12-25T06:08:18.236Z,-0.30
2018-12-25T06:10:47.313Z,-0.31
2018-12-25T06:13:16.428Z,-0.31
2018-12-25T06:15:45.506Z,-0.31
2018-12-25T06:18:14.582Z,-0.22
2018-12-25T06:20:43.678Z,-0.27
2018-12-25T06:23:13.030Z,-0.30
2018-12-25T06:25:42.119Z,-0.33
2018-12-25T06:28:11.215Z,-0.34
2018-12-25T06:30:40.343Z,-0.32
2018-12-25T06:33:09.396Z,-0.34
2018-12-25T06:35:38.488Z,-0.32
2018-12-25T06:38:07.572Z,-0.34
2018-12-25T06:40:36.672Z,-0.28
2018-12-25T06:43:05.748Z,-0.23
2018-12-25T06:45:34.858Z,-0.22
2018-12-25T06:48:03.933Z,-0.22
2018-12-25T06:50:33.031Z,-0.19
2018-12-25T06:53:02.118Z,-0.24
2018-12-25T06:55:31.223Z,-0.23
2018-12-25T06:58:00.306Z,-0.18
2018-12-25T07:00:29.396Z,-0.10
2018-12-25T07:02:58.475Z,-0.12
2018-12-25T07:05:27.571Z,-0.15
2018-12-25T07:07:56.658Z,-0.10
2018-12-25T07:10:25.743Z,-0.17
2018-12-25T07:12:54.849Z,-0.31
2018-12-25T07:15:23.936Z,-0.38
2018-12-25T07:17:53.142Z,-0.48
2018-12-25T07:20:22.288Z,-0.51
2018-12-25T07:22:51.371Z,-0.52
2018-12-25T07:25:20.464Z,-0.52
2018-12-25T07:27:49.583Z,-0.48
2018-12-25T07:30:18.670Z,-0.45
2018-12-25T07:32:47.770Z,-0.45
2018-12-25T07:35:16.856Z,-0.36
2018-12-25T07:37:45.962Z,-0.31
2018-12-25T07:40:15.039Z,-0.29
2018-12-25T07:42:44.159Z,-0.27
2018-12-25T07:45:13.241Z,-0.26
2018-12-25T07:47:42.344Z,-0.17
2018-12-25T07:50:11.437Z,-0.17
2018-12-25T07:52:40.557Z,-0.11
2018-12-25T07:55:09.653Z,-0.12
2018-12-25T07:57:38.761Z,-0.06
2018-12-25T08:00:08.031Z,-0.05
2018-12-25T08:02:37.130Z,-0.02
2018-12-25T08:05:06.235Z,0.02
2018-12-25T08:07:35.416Z,0.05
2018-12-25T08:10:04.538Z,0.16
2018-12-25T08:12:33.638Z,0.13
2018-12-25T08:15:02.714Z,-0.10
2018-12-25T08:17:31.815Z,0.00
2018-12-25T08:20:00.888Z,0.13
2018-12-25T08:22:29.963Z,0.19
2018-12-25T08:24:59.057Z,0.26
2018-12-25T08:27:28.163Z,0.45
2018-12-25T08:29:57.264Z,0.47
2018-12-25T08:32:26.341Z,0.50
2018-12-25T08:34:55.436Z,0.58
2018-12-25T08:37:24.518Z,0.65
2018-12-25T08:39:53.615Z,0.78
2018-12-25T08:42:22.689Z,0.82
2018-12-25T08:44:51.798Z,0.89
2018-12-25T08:47:20.887Z,0.90
2018-12-25T08:49:50.286Z,1.06
2018-12-25T08:52:19.423Z,1.01
2018-12-25T08:54:48.518Z,1.00
2018-12-25T08:57:17.590Z,1.09
2018-12-25T08:59:46.686Z,1.34
2018-12-25T09:02:15.773Z,1.30
2018-12-25T09:04:44.975Z,1.46
2018-12-25T09:07:14.036Z,1.75
2018-12-25T09:09:43.157Z,1.70
2018-12-25T09:12:12.230Z,1.78
2018-12-25T09:14:41.322Z,1.70
2018-12-25T09:17:10.400Z,1.93
2018-12-25T09:19:39.507Z,1.76
2018-12-25T09:22:08.599Z,1.63
2018-12-25T09:24:37.697Z,2.03
2018-12-25T09:27:06.793Z,2.01
2018-12-25T09:29:35.905Z,1.98
2018-12-25T09:32:04.983Z,1.95
2018-12-25T09:34:34.076Z,2.08
2018-12-25T09:37:03.159Z,1.88
2018-12-25T09:39:32.239Z,1.90
2018-12-25T09:42:01.339Z,2.08
2018-12-25T09:44:30.413Z,1.88
2018-12-25T09:46:59.516Z,1.97
2018-12-25T09:49:28.608Z,2.02
2018-12-25T09:51:57.695Z,2.43
2018-12-25T09:54:26.766Z,2.66
2018-12-25T09:56:55.861Z,2.65
2018-12-25T09:59:26.983Z,2.87
2018-12-25T10:01:55.747Z,3.01
2018-12-25T10:04:24.821Z,3.15
2018-12-25T10:06:53.919Z,3.49
2018-12-25T10:09:23.002Z,3.23
2018-12-25T10:11:52.106Z,3.09
2018-12-25T10:14:21.249Z,3.37
2018-12-25T10:16:50.367Z,3.58
2018-12-25T10:19:19.445Z,3.91
2018-12-25T10:21:48.542Z,4.87
2018-12-25T10:24:17.627Z,5.46
2018-12-25T10:26:46.727Z,5.81
2018-12-25T10:29:15.823Z,6.10
2018-12-25T10:31:44.937Z,6.83
2018-12-25T10:34:14.014Z,8.36
2018-12-25T10:36:43.122Z,8.74
2018-12-25T10:39:12.204Z,9.31
2018-12-25T10:41:41.290Z,9.92
2018-12-25T10:44:10.412Z,12.50
2018-12-25T10:46:39.494Z,13.47
2018-12-25T10:49:08.612Z,13.05
2018-12-25T10:51:37.715Z,15.09
2018-12-25T10:54:06.832Z,14.26
2018-12-25T10:56:35.912Z,16.94
2018-12-25T10:59:05.051Z,16.73
2018-12-25T11:01:36.313Z,16.73
2018-12-25T11:04:05.414Z,17.90
2018-12-25T11:06:34.518Z,13.22
2018-12-25T11:09:04.658Z,16.10
2018-12-25T11:11:33.786Z,16.65
2018-12-25T11:14:02.885Z,18.64
2018-12-25T11:16:31.984Z,19.29
2018-12-25T11:19:01.079Z,16.40
2018-12-25T11:21:30.159Z,16.92
2018-12-25T11:23:59.258Z,18.99
2018-12-25T11:26:28.338Z,17.95
2018-12-25T11:28:57.476Z,16.99
2018-12-25T11:31:26.595Z,16.95
2018-12-25T11:33:55.697Z,17.90
2018-12-25T11:36:24.792Z,16.66
2018-12-25T11:38:53.904Z,17.00
2018-12-25T11:41:22.981Z,18.33
2018-12-25T11:43:52.050Z,18.34
2018-12-25T11:46:21.154Z,19.33
2018-12-25T11:48:50.249Z,19.03
2018-12-25T11:51:19.347Z,17.07
2018-12-25T11:53:48.433Z,18.36
2018-12-25T11:56:17.531Z,17.43
2018-12-25T11:58:46.607Z,17.10
2018-12-25T12:01:15.706Z,15.47
2018-12-25T12:03:44.782Z,14.85
2018-12-25T12:06:13.896Z,13.16
2018-12-25T12:08:42.979Z,13.79
2018-12-25T12:11:12.087Z,13.38
2018-12-25T12:13:41.178Z,14.05
2018-12-25T12:16:10.282Z,14.07
2018-12-25T12:18:39.374Z,12.12
2018-12-25T12:21:08.490Z,13.39
2018-12-25T12:23:37.578Z,14.24
2018-12-25T12:26:06.765Z,14.69
2018-12-25T12:28:35.874Z,16.20
2018-12-25T12:31:04.980Z,15.62
2018-12-25T12:33:34.081Z,15.27
2018-12-25T12:36:03.200Z,14.39
2018-12-25T12:38:32.290Z,14.61
2018-12-25T12:41:01.662Z,13.48
2018-12-25T12:43:30.769Z,14.65
2018-12-25T12:45:59.893Z,13.37
2018-12-25T12:48:28.989Z,11.29
2018-12-25T12:50:58.096Z,11.37
2018-12-25T12:53:27.189Z,10.91
2018-12-25T12:55:56.298Z,11.52
2018-12-25T12:58:25.390Z,12.96
2018-12-25T13:00:54.474Z,13.99
2018-12-25T13:03:23.579Z,15.66
2018-12-25T13:05:52.666Z,16.42
2018-12-25T13:08:21.769Z,12.42
2018-12-25T13:10:50.868Z,12.42
2018-12-25T13:13:19.981Z,10.85
2018-12-25T13:15:49.080Z,10.38
2018-12-25T13:18:18.204Z,11.35
2018-12-25T13:20:47.300Z,12.46
2018-12-25T13:23:16.423Z,13.13
2018-12-25T13:25:45.499Z,11.27
2018-12-25T13:28:14.626Z,9.18
2018-12-25T13:30:43.797Z,8.63
2018-12-25T13:33:12.903Z,7.25
2018-12-25T13:35:41.979Z,6.72
2018-12-25T13:38:11.091Z,6.25
2018-12-25T13:40:40.167Z,6.22
2018-12-25T14:12:33.199Z,10.20
2018-12-25T14:15:02.336Z,8.85
2018-12-25T14:17:32.161Z,6.99
2018-12-25T14:20:02.267Z,5.83
2018-12-25T14:22:32.002Z,5.88
2018-12-25T14:25:01.119Z,6.05
2018-12-25T14:27:30.247Z,5.75
2018-12-25T14:29:59.364Z,5.75
2018-12-25T14:32:28.480Z,5.41
2018-12-25T14:34:57.612Z,5.28
2018-12-25T14:37:26.712Z,4.77
2018-12-25T14:39:55.848Z,5.12
2018-12-25T14:42:24.974Z,4.58
2018-12-25T14:44:54.092Z,4.15
2018-12-25T14:47:23.187Z,3.83
2018-12-25T14:49:52.632Z,3.95
2018-12-25T14:52:21.744Z,3.83
2018-12-25T14:54:50.875Z,3.96
2018-12-25T14:57:19.987Z,4.18
2018-12-25T14:59:49.125Z,4.16
2018-12-25T15:02:18.220Z,3.96
2018-12-25T15:04:47.325Z,3.99
2018-12-25T15:07:16.441Z,3.62
2018-12-25T15:09:45.537Z,3.48
2018-12-25T15:12:14.668Z,3.51
2018-12-25T15:14:43.789Z,3.54
2018-12-25T15:17:12.931Z,3.37
2018-12-25T15:19:42.030Z,3.33
2018-12-25T15:22:11.145Z,3.21
2018-12-25T15:24:40.253Z,3.12
2018-12-25T15:27:09.377Z,2.90
2018-12-25T15:29:38.495Z,2.86
2018-12-25T15:32:07.618Z,2.72
2018-12-25T15:34:36.718Z,2.69
2018-12-25T15:37:05.835Z,2.62
2018-12-25T15:39:34.929Z,2.58
2018-12-25T15:42:04.054Z,2.60
2018-12-25T15:44:33.146Z,2.63
2018-12-25T15:47:02.273Z,2.50
2018-12-25T15:49:31.370Z,2.57
2018-12-25T15:52:00.492Z,2.51
2018-12-25T15:54:29.587Z,2.41
2018-12-25T15:57:00.546Z,2.28
2018-12-25T15:59:29.639Z,2.17
2018-12-25T16:01:58.776Z,2.26
2018-12-25T16:04:27.877Z,2.28
2018-12-25T16:06:56.986Z,2.30
2018-12-25T16:09:26.080Z,2.28
2018-12-25T16:11:55.217Z,2.35
2018-12-25T16:14:24.330Z,2.41
2018-12-25T16:16:53.434Z,2.37
2018-12-25T16:19:22.551Z,2.35
2018-12-25T16:21:51.661Z,2.41
2018-12-25T16:24:27.327Z,2.32
2018-12-25T16:26:51.606Z,2.52
2018-12-25T16:29:20.747Z,2.43
2018-12-25T16:31:49.849Z,2.47
2018-12-25T16:34:18.966Z,2.40
2018-12-25T16:36:48.068Z,2.42
2018-12-25T16:39:17.184Z,2.42
2018-12-25T16:41:46.281Z,2.39
2018-12-25T16:44:15.401Z,2.33
2018-12-25T16:46:44.498Z,2.15
2018-12-25T16:49:13.613Z,2.07
2018-12-25T16:51:42.713Z,2.06
2018-12-25T16:54:11.831Z,2.06
2018-12-25T16:56:40.927Z,2.10
2018-12-25T16:59:10.057Z,2.25
2018-12-25T17:01:39.155Z,2.24
2018-12-25T17:04:08.283Z,2.18
2018-12-25T17:06:37.381Z,2.12
2018-12-25T17:09:07.535Z,2.10
2018-12-25T17:11:36.625Z,2.04
2018-12-25T17:14:05.755Z,1.90
2018-12-25T17:16:34.866Z,1.85
2018-12-25T17:19:03.981Z,1.86
2018-12-25T17:21:33.107Z,1.82
2018-12-25T17:24:02.579Z,1.76
2018-12-25T17:26:31.708Z,1.72
2018-12-25T17:29:00.841Z,1.67
2018-12-25T17:31:29.939Z,1.57
2018-12-25T17:33:59.088Z,1.56
2018-12-25T17:36:28.209Z,1.55
2018-12-25T17:38:57.329Z,1.50
2018-12-25T17:41:26.461Z,1.49
2018-12-25T17:43:55.558Z,1.40
2018-12-25T17:46:24.673Z,1.31
2018-12-25T17:48:53.765Z,1.27
2018-12-25T17:51:22.882Z,1.26
2018-12-25T17:53:51.984Z,1.10
2018-12-25T17:56:21.111Z,1.05
2018-12-25T17:58:50.209Z,1.10
2018-12-25T18:01:19.315Z,1.21
2018-12-25T18:03:48.407Z,1.17
2018-12-25T18:06:17.530Z,1.14
2018-12-25T18:08:46.621Z,1.11
2018-12-25T18:11:15.747Z,1.32
2018-12-25T18:13:44.847Z,1.17
2018-12-25T18:16:13.958Z,1.17
2018-12-25T18:18:43.062Z,1.11
2018-12-25T18:21:12.179Z,1.21
2018-12-25T18:23:41.288Z,1.24
2018-12-25T18:26:10.406Z,1.07
2018-12-25T18:28:39.522Z,1.02
2018-12-25T18:31:08.648Z,0.93
2018-12-25T18:33:37.743Z,0.86
2018-12-25T18:36:06.862Z,0.65
2018-12-25T18:38:35.961Z,0.40
2018-12-25T18:41:05.773Z,0.13
2018-12-25T18:43:34.893Z,-0.15
2018-12-25T18:46:04.029Z,-0.45
2018-12-25T18:48:33.131Z,-0.42
2018-12-25T18:51:02.248Z,-0.48
2018-12-25T18:53:31.375Z,-0.47
2018-12-25T18:56:00.475Z,-0.61
2018-12-25T18:58:29.606Z,-0.74
2018-12-25T19:00:58.704Z,-0.84
2018-12-25T19:03:27.954Z,-0.99
2018-12-25T19:05:57.047Z,-1.00
2018-12-25T19:08:26.167Z,-1.01
2018-12-25T19:10:55.266Z,-1.12
2018-12-25T19:13:24.494Z,-1.23
2018-12-25T19:15:56.199Z,-1.21
2018-12-25T19:18:25.321Z,-1.25
2018-12-25T19:20:54.438Z,-1.32
2018-12-25T19:23:23.560Z,-1.40
2018-12-25T19:25:52.654Z,-1.40
2018-12-25T19:28:21.792Z,-1.49
2018-12-25T19:30:50.942Z,-1.59
2018-12-25T19:33:20.083Z,-1.45
2018-12-25T19:35:49.177Z,-1.54
2018-12-25T19:38:18.515Z,-1.56
2018-12-25T19:40:47.622Z,-1.68
2018-12-25T19:43:16.728Z,-1.71
2018-12-25T19:45:45.953Z,-1.87
2018-12-25T19:48:15.078Z,-1.89
2018-12-25T19:50:44.184Z,-1.93
2018-12-25T19:53:13.291Z,-1.95
2018-12-25T19:55:42.410Z,-1.82
2018-12-25T19:58:12.798Z,-1.82
2018-12-25T20:00:41.931Z,-1.88
2018-12-25T20:03:18.142Z,-1.88
2018-12-25T20:06:11.282Z,-2.00
2018-12-25T20:09:02.485Z,-2.10
2018-12-25T20:11:45.855Z,-2.14
2018-12-25T20:14:57.523Z,-2.31
2018-12-25T20:18:09.151Z,-2.44
2018-12-25T20:21:05.230Z,-2.43
2018-12-25T20:24:19.367Z,-2.46
2018-12-25T20:27:43.340Z,-2.18
2018-12-25T20:30:49.016Z,-2.27
2018-12-25T20:33:45.259Z,-2.21
2018-12-25T20:36:48.486Z,-2.18
2018-12-25T20:39:53.129Z,-2.05
2018-12-25T20:43:12.068Z,-2.26
2018-12-25T20:46:13.402Z,-2.32
2018-12-25T20:49:09.543Z,-2.34
2018-12-25T20:52:40.724Z,-2.49
2018-12-25T20:55:58.694Z,-2.53
2018-12-25T20:58:48.902Z,-2.65
2018-12-25T21:01:54.658Z,-2.71
2018-12-25T21:05:09.511Z,-2.78
2018-12-25T21:08:15.303Z,-2.77
2018-12-25T21:11:32.893Z,-2.76
2018-12-25T21:14:42.583Z,-2.79
2018-12-25T21:17:57.148Z,-2.82
2018-12-25T21:21:11.406Z,-2.68
2018-12-25T21:24:15.839Z,-2.65
2018-12-25T21:27:20.527Z,-2.71
2018-12-25T21:29:49.641Z,-2.71
2018-12-25T21:32:18.787Z,-2.84
2018-12-25T21:34:48.291Z,-2.93
2018-12-25T21:37:17.514Z,-3.04
2018-12-25T21:39:46.669Z,-3.00
2018-12-25T21:42:15.729Z,-3.06
2018-12-25T21:44:44.834Z,-3.08
2018-12-25T21:47:14.682Z,-3.14
2018-12-25T21:49:47.318Z,-3.11
2018-12-25T21:52:16.539Z,-3.16
2018-12-25T21:54:46.163Z,-3.22
2018-12-25T21:57:15.259Z,-3.21
2018-12-25T21:59:44.461Z,-3.18
2018-12-25T22:02:13.682Z,-3.18
2018-12-25T22:04:42.898Z,-3.28
2018-12-25T22:07:12.024Z,-3.28
2018-12-25T22:09:41.126Z,-3.36
2018-12-25T22:12:10.251Z,-3.35
2018-12-25T22:14:39.362Z,-3.39
2018-12-25T22:17:08.469Z,-3.44
2018-12-25T22:19:37.593Z,-3.42
2018-12-25T22:22:06.696Z,-3.39
2018-12-25T22:24:35.824Z,-3.46
2018-12-25T22:27:04.988Z,-3.54
2018-12-25T22:29:34.117Z,-3.52
2018-12-25T22:32:03.246Z,-3.54
2018-12-25T22:34:32.372Z,-3.59
2018-12-25T22:37:01.472Z,-3.64
2018-12-25T22:39:30.596Z,-3.61
2018-12-25T22:41:59.692Z,-3.68
2018-12-25T22:44:28.867Z,-3.61
2018-12-25T22:46:57.911Z,-3.59
2018-12-25T22:49:27.026Z,-3.66
2018-12-25T22:51:56.135Z,-3.76
2018-12-25T22:54:25.259Z,-3.74
2018-12-25T22:56:54.351Z,-3.89
2018-12-25T22:59:23.474Z,-3.87
2018-12-25T23:01:52.574Z,-3.71
2018-12-25T23:04:21.702Z,-3.67
2018-12-25T23:06:50.847Z,-3.80
2018-12-25T23:09:19.966Z,-3.85
2018-12-25T23:11:49.057Z,-3.83
2018-12-25T23:14:18.176Z,-3.81
2018-12-25T23:16:47.285Z,-3.90
2018-12-25T23:19:16.409Z,-3.98
2018-12-25T23:21:45.508Z,-4.01
2018-12-25T23:24:14.630Z,-3.89
2018-12-25T23:26:43.741Z,-3.99
2018-12-25T23:29:12.878Z,-3.91
2018-12-25T23:31:44.736Z,-3.89
2018-12-25T23:34:13.861Z,-3.90
2018-12-25T23:36:42.954Z,-3.90
2018-12-25T23:39:12.085Z,-3.94
2018-12-25T23:41:41.358Z,-3.95
2018-12-25T23:44:10.477Z,-3.96
2018-12-25T23:46:39.583Z,-3.97
2018-12-25T23:49:08.711Z,-3.99
2018-12-25T23:51:37.806Z,-4.10
2018-12-25T23:54:06.924Z,-4.10
2018-12-25T23:56:36.022Z,-4.20
2018-12-25T23:59:05.262Z,-4.17
